Terminal Aerodrome Forecast
Issued by NWS St Louis, MO

Home | Current Version | Previous Version | Text Only | Print | Product List | Glossary On
Versions: 1 2 3 4 5 6 7 8 9 10 11 12 13 14 15 16 17 18 19 20
000
FTUS43 KLSX 271100
TAFCOU
TAF
KCOU 271125Z 2712/2812 29014G20KT P6SM BKN008 OVC015
     FM271400 30013KT P6SM OVC020
     FM271700 30010KT P6SM OVC040
     FM280000 30006KT P6SM SCT060=

USA.gov is the U.S. government's official web portal to all federal, state and local government web resources and services.